sensor_id;sensor_type;location;lat;lon;timestamp;P1;durP1;ratioP1;P2;durP2;ratioP2
25439;SDS011;13365;52.208;5.488;2023-07-28T00:02:17;18.38;;;8.60;;
25439;SDS011;13365;52.208;5.488;2023-07-28T00:04:42;12.40;;;8.27;;
25439;SDS011;13365;52.208;5.488;2023-07-28T00:07:08;15.65;;;8.93;;
25439;SDS011;13365;52.208;5.488;2023-07-28T00:09:33;12.18;;;9.05;;
25439;SDS011;13365;52.208;5.488;2023-07-28T00:11:59;15.98;;;8.98;;
25439;SDS011;13365;52.208;5.488;2023-07-28T00:14:26;15.50;;;8.13;;
25439;SDS011;13365;52.208;5.488;2023-07-28T00:16:52;21.00;;;9.43;;
25439;SDS011;13365;52.208;5.488;2023-07-28T00:19:18;14.40;;;9.02;;
25439;SDS011;13365;52.208;5.488;2023-07-28T00:21:45;13.13;;;8.77;;
25439;SDS011;13365;52.208;5.488;2023-07-28T00:24:12;12.20;;;8.13;;
25439;SDS011;13365;52.208;5.488;2023-07-28T00:26:37;13.85;;;8.30;;
25439;SDS011;13365;52.208;5.488;2023-07-28T00:29:03;14.02;;;8.43;;
25439;SDS011;13365;52.208;5.488;2023-07-28T00:31:31;14.18;;;8.77;;
25439;SDS011;13365;52.208;5.488;2023-07-28T00:33:57;13.60;;;8.32;;
25439;SDS011;13365;52.208;5.488;2023-07-28T00:36:22;14.90;;;8.95;;
25439;SDS011;13365;52.208;5.488;2023-07-28T00:38:48;18.08;;;9.88;;
25439;SDS011;13365;52.208;5.488;2023-07-28T00:41:13;16.27;;;9.18;;
25439;SDS011;13365;52.208;5.488;2023-07-28T00:43:39;19.08;;;9.35;;
25439;SDS011;13365;52.208;5.488;2023-07-28T00:46:04;14.93;;;8.95;;
25439;SDS011;13365;52.208;5.488;2023-07-28T00:48:30;17.63;;;10.48;;
25439;SDS011;13365;52.208;5.488;2023-07-28T00:50:56;11.93;;;8.73;;
25439;SDS011;13365;52.208;5.488;2023-07-28T00:53:22;17.83;;;9.35;;
25439;SDS011;13365;52.208;5.488;2023-07-28T00:55:48;15.20;;;8.93;;
25439;SDS011;13365;52.208;5.488;2023-07-28T00:58:14;12.70;;;8.88;;
25439;SDS011;13365;52.208;5.488;2023-07-28T01:00:40;12.73;;;8.35;;
25439;SDS011;13365;52.208;5.488;2023-07-28T01:03:05;15.70;;;8.70;;
25439;SDS011;13365;52.208;5.488;2023-07-28T01:05:33;13.93;;;7.68;;
25439;SDS011;13365;52.208;5.488;2023-07-28T01:08:39;14.98;;;7.88;;
25439;SDS011;13365;52.208;5.488;2023-07-28T01:11:11;13.73;;;7.50;;
25439;SDS011;13365;52.208;5.488;2023-07-28T01:13:36;15.48;;;6.63;;
25439;SDS011;13365;52.208;5.488;2023-07-28T01:16:01;14.65;;;7.05;;
25439;SDS011;13365;52.208;5.488;2023-07-28T01:18:27;14.60;;;7.82;;
25439;SDS011;13365;52.208;5.488;2023-07-28T01:20:54;20.85;;;8.27;;
25439;SDS011;13365;52.208;5.488;2023-07-28T01:28:33;15.38;;;7.65;;
25439;SDS011;13365;52.208;5.488;2023-07-28T01:31:03;19.75;;;9.27;;
25439;SDS011;13365;52.208;5.488;2023-07-28T01:33:30;19.30;;;8.30;;
25439;SDS011;13365;52.208;5.488;2023-07-28T01:35:57;16.27;;;8.48;;
25439;SDS011;13365;52.208;5.488;2023-07-28T01:38:25;17.20;;;8.30;;
25439;SDS011;13365;52.208;5.488;2023-07-28T01:40:50;16.80;;;7.78;;
25439;SDS011;13365;52.208;5.488;2023-07-28T01:43:16;16.17;;;7.70;;
25439;SDS011;13365;52.208;5.488;2023-07-28T01:45:42;15.38;;;7.80;;
25439;SDS011;13365;52.208;5.488;2023-07-28T01:48:07;17.08;;;8.10;;
25439;SDS011;13365;52.208;5.488;2023-07-28T01:50:36;12.13;;;7.07;;
25439;SDS011;13365;52.208;5.488;2023-07-28T01:53:01;13.07;;;8.05;;
25439;SDS011;13365;52.208;5.488;2023-07-28T01:55:27;18.05;;;7.38;;
25439;SDS011;13365;52.208;5.488;2023-07-28T01:57:57;12.35;;;6.30;;
25439;SDS011;13365;52.208;5.488;2023-07-28T02:00:24;11.95;;;7.05;;
25439;SDS011;13365;52.208;5.488;2023-07-28T02:02:50;18.23;;;7.97;;
25439;SDS011;13365;52.208;5.488;2023-07-28T02:05:16;15.57;;;6.93;;
25439;SDS011;13365;52.208;5.488;2023-07-28T02:07:42;17.25;;;8.25;;
25439;SDS011;13365;52.208;5.488;2023-07-28T02:10:08;18.05;;;8.50;;
25439;SDS011;13365;52.208;5.488;2023-07-28T02:12:35;17.10;;;7.30;;
25439;SDS011;13365;52.208;5.488;2023-07-28T02:15:01;14.55;;;7.90;;
25439;SDS011;13365;52.208;5.488;2023-07-28T02:17:27;17.20;;;8.20;;
25439;SDS011;13365;52.208;5.488;2023-07-28T02:19:52;19.23;;;8.07;;
25439;SDS011;13365;52.208;5.488;2023-07-28T02:22:18;16.33;;;7.80;;
25439;SDS011;13365;52.208;5.488;2023-07-28T02:24:43;14.80;;;8.05;;
25439;SDS011;13365;52.208;5.488;2023-07-28T02:27:09;17.85;;;8.02;;
25439;SDS011;13365;52.208;5.488;2023-07-28T02:29:36;15.25;;;7.75;;
25439;SDS011;13365;52.208;5.488;2023-07-28T02:32:03;17.33;;;7.70;;
25439;SDS011;13365;52.208;5.488;2023-07-28T02:34:28;15.85;;;7.38;;
25439;SDS011;13365;52.208;5.488;2023-07-28T02:36:54;19.40;;;8.48;;
25439;SDS011;13365;52.208;5.488;2023-07-28T02:39:19;23.20;;;8.05;;
25439;SDS011;13365;52.208;5.488;2023-07-28T02:41:46;19.25;;;7.32;;
25439;SDS011;13365;52.208;5.488;2023-07-28T02:44:11;16.25;;;7.88;;
25439;SDS011;13365;52.208;5.488;2023-07-28T02:46:37;23.92;;;8.57;;
25439;SDS011;13365;52.208;5.488;2023-07-28T02:49:02;17.73;;;8.95;;
25439;SDS011;13365;52.208;5.488;2023-07-28T02:51:29;16.77;;;8.52;;
25439;SDS011;13365;52.208;5.488;2023-07-28T02:53:55;22.58;;;8.93;;
25439;SDS011;13365;52.208;5.488;2023-07-28T02:56:20;15.88;;;8.70;;
25439;SDS011;13365;52.208;5.488;2023-07-28T02:58:46;16.48;;;8.40;;
25439;SDS011;13365;52.208;5.488;2023-07-28T03:01:13;18.02;;;9.32;;
25439;SDS011;13365;52.208;5.488;2023-07-28T03:03:38;18.38;;;9.63;;
25439;SDS011;13365;52.208;5.488;2023-07-28T03:06:04;17.77;;;9.85;;
25439;SDS011;13365;52.208;5.488;2023-07-28T03:08:30;18.77;;;9.50;;
25439;SDS011;13365;52.208;5.488;2023-07-28T03:10:56;21.08;;;9.93;;
25439;SDS011;13365;52.208;5.488;2023-07-28T03:13:22;27.60;;;10.32;;
25439;SDS011;13365;52.208;5.488;2023-07-28T03:15:47;19.05;;;9.55;;
25439;SDS011;13365;52.208;5.488;2023-07-28T03:18:13;25.98;;;9.85;;
25439;SDS011;13365;52.208;5.488;2023-07-28T03:20:38;24.60;;;10.05;;
25439;SDS011;13365;52.208;5.488;2023-07-28T03:23:05;18.23;;;9.40;;
25439;SDS011;13365;52.208;5.488;2023-07-28T03:25:30;23.75;;;9.88;;
25439;SDS011;13365;52.208;5.488;2023-07-28T03:27:56;24.25;;;10.52;;
25439;SDS011;13365;52.208;5.488;2023-07-28T03:30:21;25.35;;;10.48;;
25439;SDS011;13365;52.208;5.488;2023-07-28T03:32:47;26.13;;;10.10;;
25439;SDS011;13365;52.208;5.488;2023-07-28T03:35:13;27.35;;;10.15;;
25439;SDS011;13365;52.208;5.488;2023-07-28T03:37:38;23.02;;;10.30;;
25439;SDS011;13365;52.208;5.488;2023-07-28T03:40:04;22.77;;;9.80;;
25439;SDS011;13365;52.208;5.488;2023-07-28T03:42:30;16.27;;;9.30;;
25439;SDS011;13365;52.208;5.488;2023-07-28T03:44:56;20.25;;;9.18;;
25439;SDS011;13365;52.208;5.488;2023-07-28T03:47:23;25.40;;;10.60;;
25439;SDS011;13365;52.208;5.488;2023-07-28T03:49:48;17.10;;;9.35;;
25439;SDS011;13365;52.208;5.488;2023-07-28T03:52:14;17.13;;;9.10;;
25439;SDS011;13365;52.208;5.488;2023-07-28T03:54:39;20.65;;;9.75;;
25439;SDS011;13365;52.208;5.488;2023-07-28T03:57:05;21.30;;;9.27;;
25439;SDS011;13365;52.208;5.488;2023-07-28T03:59:31;21.42;;;9.02;;
25439;SDS011;13365;52.208;5.488;2023-07-28T04:01:56;24.35;;;9.93;;
25439;SDS011;13365;52.208;5.488;2023-07-28T04:04:22;26.33;;;9.77;;
25439;SDS011;13365;52.208;5.488;2023-07-28T04:06:48;23.17;;;9.30;;
25439;SDS011;13365;52.208;5.488;2023-07-28T04:09:18;23.40;;;9.45;;
25439;SDS011;13365;52.208;5.488;2023-07-28T04:11:44;21.02;;;9.55;;
25439;SDS011;13365;52.208;5.488;2023-07-28T04:14:10;23.00;;;9.90;;
25439;SDS011;13365;52.208;5.488;2023-07-28T04:16:35;22.80;;;10.52;;
25439;SDS011;13365;52.208;5.488;2023-07-28T04:19:01;23.77;;;10.38;;
25439;SDS011;13365;52.208;5.488;2023-07-28T04:21:27;20.10;;;9.73;;
25439;SDS011;13365;52.208;5.488;2023-07-28T04:23:52;19.55;;;9.65;;
25439;SDS011;13365;52.208;5.488;2023-07-28T04:26:18;25.50;;;10.02;;
25439;SDS011;13365;52.208;5.488;2023-07-28T04:28:43;22.15;;;10.52;;
25439;SDS011;13365;52.208;5.488;2023-07-28T04:31:10;18.58;;;10.52;;
25439;SDS011;13365;52.208;5.488;2023-07-28T04:33:36;25.65;;;11.88;;
25439;SDS011;13365;52.208;5.488;2023-07-28T04:36:04;22.60;;;10.55;;
25439;SDS011;13365;52.208;5.488;2023-07-28T04:38:30;19.25;;;9.68;;
25439;SDS011;13365;52.208;5.488;2023-07-28T04:40:56;21.52;;;10.57;;
25439;SDS011;13365;52.208;5.488;2023-07-28T04:43:21;23.27;;;10.63;;
25439;SDS011;13365;52.208;5.488;2023-07-28T04:45:47;25.85;;;11.00;;
25439;SDS011;13365;52.208;5.488;2023-07-28T04:48:12;23.77;;;10.35;;
25439;SDS011;13365;52.208;5.488;2023-07-28T04:50:38;21.52;;;10.50;;
25439;SDS011;13365;52.208;5.488;2023-07-28T04:53:03;24.15;;;10.45;;
25439;SDS011;13365;52.208;5.488;2023-07-28T04:55:29;23.17;;;10.88;;
25439;SDS011;13365;52.208;5.488;2023-07-28T04:57:55;25.05;;;11.10;;
25439;SDS011;13365;52.208;5.488;2023-07-28T05:00:21;25.88;;;11.23;;
25439;SDS011;13365;52.208;5.488;2023-07-28T05:02:46;27.55;;;11.50;;
25439;SDS011;13365;52.208;5.488;2023-07-28T05:05:12;25.95;;;10.45;;
25439;SDS011;13365;52.208;5.488;2023-07-28T05:07:37;29.70;;;11.40;;
25439;SDS011;13365;52.208;5.488;2023-07-28T05:10:03;21.10;;;11.30;;
25439;SDS011;13365;52.208;5.488;2023-07-28T05:12:29;27.77;;;11.82;;
25439;SDS011;13365;52.208;5.488;2023-07-28T05:14:54;25.08;;;12.38;;
25439;SDS011;13365;52.208;5.488;2023-07-28T05:17:20;27.25;;;12.20;;
25439;SDS011;13365;52.208;5.488;2023-07-28T05:19:45;27.05;;;11.98;;
25439;SDS011;13365;52.208;5.488;2023-07-28T05:22:11;27.10;;;12.80;;
25439;SDS011;13365;52.208;5.488;2023-07-28T05:24:36;27.67;;;12.07;;
25439;SDS011;13365;52.208;5.488;2023-07-28T05:27:02;29.33;;;11.88;;
25439;SDS011;13365;52.208;5.488;2023-07-28T05:29:27;28.33;;;11.50;;
25439;SDS011;13365;52.208;5.488;2023-07-28T05:31:53;21.77;;;11.73;;
25439;SDS011;13365;52.208;5.488;2023-07-28T05:34:19;27.08;;;11.32;;
25439;SDS011;13365;52.208;5.488;2023-07-28T05:36:44;28.75;;;12.32;;
25439;SDS011;13365;52.208;5.488;2023-07-28T05:39:12;35.08;;;12.20;;
25439;SDS011;13365;52.208;5.488;2023-07-28T05:41:39;28.70;;;12.43;;
25439;SDS011;13365;52.208;5.488;2023-07-28T05:44:05;24.48;;;11.75;;
25439;SDS011;13365;52.208;5.488;2023-07-28T05:46:30;23.25;;;12.20;;
25439;SDS011;13365;52.208;5.488;2023-07-28T05:48:56;23.95;;;10.90;;
25439;SDS011;13365;52.208;5.488;2023-07-28T05:51:22;29.13;;;12.93;;
25439;SDS011;13365;52.208;5.488;2023-07-28T05:53:49;25.33;;;12.10;;
25439;SDS011;13365;52.208;5.488;2023-07-28T05:56:15;28.13;;;10.77;;
25439;SDS011;13365;52.208;5.488;2023-07-28T05:58:40;23.73;;;12.30;;
25439;SDS011;13365;52.208;5.488;2023-07-28T06:01:06;20.27;;;12.07;;
25439;SDS011;13365;52.208;5.488;2023-07-28T06:03:31;22.95;;;11.70;;
25439;SDS011;13365;52.208;5.488;2023-07-28T06:05:57;32.20;;;13.85;;
25439;SDS011;13365;52.208;5.488;2023-07-28T06:08:22;21.23;;;11.63;;
25439;SDS011;13365;52.208;5.488;2023-07-28T06:10:48;26.25;;;12.23;;
25439;SDS011;13365;52.208;5.488;2023-07-28T06:13:15;25.67;;;12.25;;
25439;SDS011;13365;52.208;5.488;2023-07-28T06:15:41;27.88;;;12.77;;
25439;SDS011;13365;52.208;5.488;2023-07-28T06:18:07;22.55;;;11.10;;
25439;SDS011;13365;52.208;5.488;2023-07-28T06:20:33;21.05;;;11.32;;
25439;SDS011;13365;52.208;5.488;2023-07-28T06:23:01;25.23;;;11.70;;
25439;SDS011;13365;52.208;5.488;2023-07-28T06:25:26;26.98;;;11.10;;
25439;SDS011;13365;52.208;5.488;2023-07-28T06:27:52;17.23;;;9.48;;
25439;SDS011;13365;52.208;5.488;2023-07-28T06:30:17;19.60;;;9.82;;
25439;SDS011;13365;52.208;5.488;2023-07-28T06:32:43;20.17;;;9.77;;
25439;SDS011;13365;52.208;5.488;2023-07-28T06:35:10;19.60;;;9.20;;
25439;SDS011;13365;52.208;5.488;2023-07-28T06:37:36;18.65;;;8.85;;
25439;SDS011;13365;52.208;5.488;2023-07-28T06:40:05;16.10;;;8.35;;
25439;SDS011;13365;52.208;5.488;2023-07-28T06:42:34;14.77;;;8.05;;
25439;SDS011;13365;52.208;5.488;2023-07-28T06:47:36;14.88;;;9.07;;
25439;SDS011;13365;52.208;5.488;2023-07-28T06:52:58;20.80;;;8.52;;
25439;SDS011;13365;52.208;5.488;2023-07-28T06:55:24;13.95;;;7.95;;
25439;SDS011;13365;52.208;5.488;2023-07-28T06:57:49;16.10;;;8.60;;
25439;SDS011;13365;52.208;5.488;2023-07-28T07:00:18;16.58;;;8.90;;
25439;SDS011;13365;52.208;5.488;2023-07-28T07:02:45;21.23;;;8.07;;
25439;SDS011;13365;52.208;5.488;2023-07-28T07:05:10;23.40;;;9.52;;
25439;SDS011;13365;52.208;5.488;2023-07-28T07:07:36;23.33;;;9.85;;
25439;SDS011;13365;52.208;5.488;2023-07-28T07:10:02;19.42;;;9.50;;
25439;SDS011;13365;52.208;5.488;2023-07-28T07:12:28;21.48;;;10.27;;
25439;SDS011;13365;52.208;5.488;2023-07-28T07:14:55;18.65;;;9.75;;
25439;SDS011;13365;52.208;5.488;2023-07-28T07:17:21;15.02;;;9.13;;
25439;SDS011;13365;52.208;5.488;2023-07-28T07:19:46;21.27;;;10.55;;
25439;SDS011;13365;52.208;5.488;2023-07-28T07:22:20;18.67;;;10.05;;
25439;SDS011;13365;52.208;5.488;2023-07-28T07:24:58;21.80;;;11.43;;
25439;SDS011;13365;52.208;5.488;2023-07-28T07:27:24;17.80;;;10.05;;
25439;SDS011;13365;52.208;5.488;2023-07-28T07:29:52;18.33;;;9.73;;
25439;SDS011;13365;52.208;5.488;2023-07-28T07:32:23;19.65;;;10.60;;
25439;SDS011;13365;52.208;5.488;2023-07-28T07:34:48;17.38;;;10.30;;
25439;SDS011;13365;52.208;5.488;2023-07-28T07:37:18;18.67;;;10.63;;
25439;SDS011;13365;52.208;5.488;2023-07-28T07:39:43;23.13;;;10.35;;
25439;SDS011;13365;52.208;5.488;2023-07-28T07:42:10;20.83;;;10.20;;
25439;SDS011;13365;52.208;5.488;2023-07-28T07:44:39;22.33;;;11.07;;
25439;SDS011;13365;52.208;5.488;2023-07-28T07:47:13;24.38;;;9.98;;
25439;SDS011;13365;52.208;5.488;2023-07-28T07:49:46;27.50;;;11.48;;
25439;SDS011;13365;52.208;5.488;2023-07-28T07:52:11;19.48;;;10.75;;
25439;SDS011;13365;52.208;5.488;2023-07-28T07:54:37;28.05;;;10.48;;
25439;SDS011;13365;52.208;5.488;2023-07-28T07:57:03;20.67;;;11.10;;
25439;SDS011;13365;52.208;5.488;2023-07-28T07:59:29;16.70;;;10.15;;
25439;SDS011;13365;52.208;5.488;2023-07-28T08:01:57;18.02;;;10.57;;
25439;SDS011;13365;52.208;5.488;2023-07-28T08:04:25;17.48;;;10.48;;
25439;SDS011;13365;52.208;5.488;2023-07-28T08:06:52;17.77;;;10.80;;
25439;SDS011;13365;52.208;5.488;2023-07-28T08:09:18;22.27;;;12.25;;
25439;SDS011;13365;52.208;5.488;2023-07-28T08:11:44;17.80;;;10.35;;
25439;SDS011;13365;52.208;5.488;2023-07-28T08:14:09;18.20;;;10.90;;
25439;SDS011;13365;52.208;5.488;2023-07-28T08:16:35;18.60;;;11.15;;
25439;SDS011;13365;52.208;5.488;2023-07-28T08:19:00;23.67;;;11.10;;
25439;SDS011;13365;52.208;5.488;2023-07-28T08:21:26;21.73;;;11.07;;
25439;SDS011;13365;52.208;5.488;2023-07-28T08:23:51;21.65;;;11.35;;
25439;SDS011;13365;52.208;5.488;2023-07-28T08:26:17;18.65;;;11.13;;
25439;SDS011;13365;52.208;5.488;2023-07-28T08:28:43;17.23;;;10.43;;
25439;SDS011;13365;52.208;5.488;2023-07-28T08:31:09;23.35;;;10.30;;
25439;SDS011;13365;52.208;5.488;2023-07-28T08:33:36;21.85;;;10.38;;
25439;SDS011;13365;52.208;5.488;2023-07-28T08:36:02;17.67;;;9.65;;
25439;SDS011;13365;52.208;5.488;2023-07-28T08:38:28;16.35;;;9.77;;
25439;SDS011;13365;52.208;5.488;2023-07-28T08:40:53;22.60;;;8.68;;
25439;SDS011;13365;52.208;5.488;2023-07-28T08:43:21;19.30;;;8.88;;
25439;SDS011;13365;52.208;5.488;2023-07-28T08:45:46;17.98;;;10.43;;
25439;SDS011;13365;52.208;5.488;2023-07-28T08:48:12;20.52;;;9.73;;
25439;SDS011;13365;52.208;5.488;2023-07-28T08:50:38;15.07;;;8.52;;
25439;SDS011;13365;52.208;5.488;2023-07-28T08:53:04;15.40;;;8.57;;
25439;SDS011;13365;52.208;5.488;2023-07-28T08:55:30;16.48;;;8.30;;
25439;SDS011;13365;52.208;5.488;2023-07-28T08:57:55;14.82;;;8.48;;
25439;SDS011;13365;52.208;5.488;2023-07-28T09:00:21;11.32;;;7.63;;
25439;SDS011;13365;52.208;5.488;2023-07-28T09:02:48;19.27;;;8.57;;
25439;SDS011;13365;52.208;5.488;2023-07-28T09:05:19;12.15;;;7.97;;
25439;SDS011;13365;52.208;5.488;2023-07-28T09:07:46;15.40;;;7.80;;
25439;SDS011;13365;52.208;5.488;2023-07-28T09:10:12;14.75;;;7.93;;
25439;SDS011;13365;52.208;5.488;2023-07-28T09:12:50;9.63;;;6.15;;
25439;SDS011;13365;52.208;5.488;2023-07-28T09:15:16;12.13;;;6.18;;
25439;SDS011;13365;52.208;5.488;2023-07-28T09:17:43;11.07;;;5.20;;
25439;SDS011;13365;52.208;5.488;2023-07-28T09:20:12;8.98;;;5.00;;
25439;SDS011;13365;52.208;5.488;2023-07-28T09:22:39;9.95;;;5.00;;
25439;SDS011;13365;52.208;5.488;2023-07-28T09:25:14;9.27;;;5.38;;
25439;SDS011;13365;52.208;5.488;2023-07-28T09:27:41;9.20;;;4.03;;
25439;SDS011;13365;52.208;5.488;2023-07-28T09:30:16;12.10;;;4.07;;
25439;SDS011;13365;52.208;5.488;2023-07-28T09:32:46;8.38;;;4.22;;
25439;SDS011;13365;52.208;5.488;2023-07-28T09:35:13;7.93;;;3.70;;
25439;SDS011;13365;52.208;5.488;2023-07-28T09:37:45;9.88;;;4.03;;
25439;SDS011;13365;52.208;5.488;2023-07-28T09:40:14;8.98;;;3.78;;
25439;SDS011;13365;52.208;5.488;2023-07-28T09:42:43;10.52;;;4.07;;
25439;SDS011;13365;52.208;5.488;2023-07-28T09:45:10;8.35;;;3.83;;
25439;SDS011;13365;52.208;5.488;2023-07-28T09:47:36;10.52;;;4.22;;
25439;SDS011;13365;52.208;5.488;2023-07-28T09:50:03;8.80;;;2.97;;
25439;SDS011;13365;52.208;5.488;2023-07-28T09:52:31;10.82;;;3.38;;
25439;SDS011;13365;52.208;5.488;2023-07-28T09:55:06;7.93;;;4.22;;
25439;SDS011;13365;52.208;5.488;2023-07-28T09:57:36;11.10;;;4.20;;
25439;SDS011;13365;52.208;5.488;2023-07-28T10:02:33;5.25;;;3.42;;
25439;SDS011;13365;52.208;5.488;2023-07-28T10:05:00;9.65;;;3.97;;
25439;SDS011;13365;52.208;5.488;2023-07-28T10:07:27;4.70;;;2.60;;
25439;SDS011;13365;52.208;5.488;2023-07-28T10:09:53;7.38;;;3.65;;
25439;SDS011;13365;52.208;5.488;2023-07-28T10:12:26;10.75;;;4.25;;
25439;SDS011;13365;52.208;5.488;2023-07-28T10:15:01;8.68;;;4.75;;
25439;SDS011;13365;52.208;5.488;2023-07-28T10:17:33;13.32;;;4.90;;
25439;SDS011;13365;52.208;5.488;2023-07-28T10:20:02;18.25;;;5.95;;
25439;SDS011;13365;52.208;5.488;2023-07-28T10:22:33;7.55;;;4.97;;
25439;SDS011;13365;52.208;5.488;2023-07-28T10:25:11;10.63;;;6.03;;
25439;SDS011;13365;52.208;5.488;2023-07-28T10:27:37;9.48;;;5.65;;
25439;SDS011;13365;52.208;5.488;2023-07-28T10:30:07;9.70;;;5.35;;
25439;SDS011;13365;52.208;5.488;2023-07-28T10:32:40;12.73;;;6.13;;
25439;SDS011;13365;52.208;5.488;2023-07-28T10:37:45;10.63;;;6.07;;
25439;SDS011;13365;52.208;5.488;2023-07-28T10:40:25;11.52;;;6.40;;
25439;SDS011;13365;52.208;5.488;2023-07-28T10:42:53;11.63;;;6.15;;
25439;SDS011;13365;52.208;5.488;2023-07-28T10:45:20;11.80;;;5.22;;
25439;SDS011;13365;52.208;5.488;2023-07-28T10:47:47;9.52;;;4.38;;
25439;SDS011;13365;52.208;5.488;2023-07-28T10:50:13;10.63;;;4.55;;
25439;SDS011;13365;52.208;5.488;2023-07-28T10:52:39;20.80;;;5.10;;
25439;SDS011;13365;52.208;5.488;2023-07-28T10:55:15;10.38;;;4.10;;
25439;SDS011;13365;52.208;5.488;2023-07-28T10:57:43;12.00;;;3.83;;
25439;SDS011;13365;52.208;5.488;2023-07-28T11:00:10;10.02;;;3.17;;
25439;SDS011;13365;52.208;5.488;2023-07-28T11:02:46;11.00;;;4.03;;
25439;SDS011;13365;52.208;5.488;2023-07-28T11:05:18;6.93;;;3.00;;
25439;SDS011;13365;52.208;5.488;2023-07-28T11:07:45;11.07;;;3.75;;
25439;SDS011;13365;52.208;5.488;2023-07-28T11:10:11;6.57;;;3.78;;
25439;SDS011;13365;52.208;5.488;2023-07-28T11:12:40;5.63;;;3.75;;
25439;SDS011;13365;52.208;5.488;2023-07-28T11:15:10;9.57;;;4.72;;
25439;SDS011;13365;52.208;5.488;2023-07-28T11:17:37;6.40;;;4.18;;
25439;SDS011;13365;52.208;5.488;2023-07-28T11:20:22;8.68;;;4.65;;
25439;SDS011;13365;52.208;5.488;2023-07-28T11:22:58;7.03;;;4.13;;
25439;SDS011;13365;52.208;5.488;2023-07-28T11:25:29;11.45;;;4.90;;
25439;SDS011;13365;52.208;5.488;2023-07-28T11:27:56;7.65;;;4.30;;
25439;SDS011;13365;52.208;5.488;2023-07-28T11:30:22;11.32;;;5.07;;
25439;SDS011;13365;52.208;5.488;2023-07-28T11:32:49;7.75;;;3.97;;
25439;SDS011;13365;52.208;5.488;2023-07-28T11:35:18;9.02;;;4.00;;
25439;SDS011;13365;52.208;5.488;2023-07-28T11:37:46;6.93;;;4.07;;
25439;SDS011;13365;52.208;5.488;2023-07-28T11:40:14;13.60;;;4.90;;
25439;SDS011;13365;52.208;5.488;2023-07-28T11:42:43;8.45;;;4.68;;
25439;SDS011;13365;52.208;5.488;2023-07-28T11:45:10;8.55;;;4.65;;
25439;SDS011;13365;52.208;5.488;2023-07-28T11:47:37;7.10;;;4.32;;
25439;SDS011;13365;52.208;5.488;2023-07-28T11:50:02;9.18;;;3.95;;
25439;SDS011;13365;52.208;5.488;2023-07-28T11:52:30;7.10;;;4.15;;
25439;SDS011;13365;52.208;5.488;2023-07-28T11:54:58;9.93;;;5.18;;
25439;SDS011;13365;52.208;5.488;2023-07-28T11:57:25;9.38;;;4.97;;
25439;SDS011;13365;52.208;5.488;2023-07-28T11:59:51;12.48;;;4.55;;
25439;SDS011;13365;52.208;5.488;2023-07-28T12:02:23;11.93;;;5.00;;
25439;SDS011;13365;52.208;5.488;2023-07-28T12:04:53;8.13;;;5.13;;
25439;SDS011;13365;52.208;5.488;2023-07-28T12:07:20;7.20;;;4.70;;
25439;SDS011;13365;52.208;5.488;2023-07-28T12:09:55;11.23;;;5.50;;
25439;SDS011;13365;52.208;5.488;2023-07-28T12:12:25;11.55;;;5.30;;
25439;SDS011;13365;52.208;5.488;2023-07-28T12:14:51;8.70;;;4.72;;
25439;SDS011;13365;52.208;5.488;2023-07-28T12:17:18;8.32;;;3.88;;
25439;SDS011;13365;52.208;5.488;2023-07-28T12:20:18;8.35;;;3.45;;
25439;SDS011;13365;52.208;5.488;2023-07-28T12:22:38;7.80;;;3.30;;
25439;SDS011;13365;52.208;5.488;2023-07-28T12:25:04;13.75;;;3.72;;
25439;SDS011;13365;52.208;5.488;2023-07-28T12:27:30;5.35;;;2.80;;
25439;SDS011;13365;52.208;5.488;2023-07-28T12:29:56;6.43;;;3.20;;
25439;SDS011;13365;52.208;5.488;2023-07-28T12:32:22;8.25;;;4.15;;
25439;SDS011;13365;52.208;5.488;2023-07-28T12:34:48;9.20;;;3.75;;
25439;SDS011;13365;52.208;5.488;2023-07-28T12:37:15;6.68;;;4.35;;
25439;SDS011;13365;52.208;5.488;2023-07-28T12:39:41;14.07;;;4.93;;
25439;SDS011;13365;52.208;5.488;2023-07-28T12:42:07;9.32;;;4.38;;
25439;SDS011;13365;52.208;5.488;2023-07-28T12:44:34;8.18;;;4.10;;
25439;SDS011;13365;52.208;5.488;2023-07-28T12:47:00;8.98;;;4.40;;
25439;SDS011;13365;52.208;5.488;2023-07-28T12:49:26;8.95;;;4.43;;
25439;SDS011;13365;52.208;5.488;2023-07-28T12:51:55;9.23;;;4.32;;
25439;SDS011;13365;52.208;5.488;2023-07-28T12:54:21;9.18;;;4.60;;
25439;SDS011;13365;52.208;5.488;2023-07-28T12:56:47;8.48;;;5.18;;
25439;SDS011;13365;52.208;5.488;2023-07-28T12:59:13;8.00;;;5.20;;
25439;SDS011;13365;52.208;5.488;2023-07-28T13:01:39;7.30;;;4.28;;
25439;SDS011;13365;52.208;5.488;2023-07-28T13:04:06;9.65;;;5.25;;
25439;SDS011;13365;52.208;5.488;2023-07-28T13:06:31;9.55;;;4.60;;
25439;SDS011;13365;52.208;5.488;2023-07-28T13:08:57;8.60;;;4.32;;
25439;SDS011;13365;52.208;5.488;2023-07-28T13:11:22;9.70;;;3.88;;
25439;SDS011;13365;52.208;5.488;2023-07-28T13:13:48;13.10;;;5.45;;
25439;SDS011;13365;52.208;5.488;2023-07-28T13:16:14;7.47;;;4.32;;
25439;SDS011;13365;52.208;5.488;2023-07-28T13:18:40;8.30;;;4.70;;
25439;SDS011;13365;52.208;5.488;2023-07-28T13:21:07;8.30;;;4.53;;
25439;SDS011;13365;52.208;5.488;2023-07-28T13:23:32;6.63;;;4.70;;
25439;SDS011;13365;52.208;5.488;2023-07-28T13:25:59;8.88;;;4.57;;
25439;SDS011;13365;52.208;5.488;2023-07-28T13:28:24;7.50;;;4.60;;
25439;SDS011;13365;52.208;5.488;2023-07-28T13:30:50;5.60;;;3.30;;
25439;SDS011;13365;52.208;5.488;2023-07-28T13:33:16;7.97;;;4.93;;
25439;SDS011;13365;52.208;5.488;2023-07-28T13:35:42;8.35;;;4.53;;
25439;SDS011;13365;52.208;5.488;2023-07-28T13:38:08;9.15;;;3.75;;
25439;SDS011;13365;52.208;5.488;2023-07-28T13:40:34;7.18;;;3.88;;
25439;SDS011;13365;52.208;5.488;2023-07-28T13:43:00;10.43;;;3.67;;
25439;SDS011;13365;52.208;5.488;2023-07-28T13:45:26;7.35;;;3.50;;
25439;SDS011;13365;52.208;5.488;2023-07-28T13:47:51;8.45;;;4.20;;
25439;SDS011;13365;52.208;5.488;2023-07-28T13:50:17;6.82;;;3.63;;
25439;SDS011;13365;52.208;5.488;2023-07-28T13:52:42;10.10;;;4.05;;
25439;SDS011;13365;52.208;5.488;2023-07-28T13:55:08;6.43;;;3.92;;
25439;SDS011;13365;52.208;5.488;2023-07-28T13:57:34;7.50;;;3.17;;
25439;SDS011;13365;52.208;5.488;2023-07-28T13:59:59;4.85;;;2.78;;
25439;SDS011;13365;52.208;5.488;2023-07-28T14:02:25;7.10;;;3.67;;
25439;SDS011;13365;52.208;5.488;2023-07-28T14:04:50;4.55;;;3.50;;
25439;SDS011;13365;52.208;5.488;2023-07-28T14:07:16;5.80;;;3.70;;
25439;SDS011;13365;52.208;5.488;2023-07-28T14:09:41;5.57;;;3.63;;
25439;SDS011;13365;52.208;5.488;2023-07-28T14:12:07;11.63;;;3.65;;
25439;SDS011;13365;52.208;5.488;2023-07-28T14:14:33;6.15;;;3.55;;
25439;SDS011;13365;52.208;5.488;2023-07-28T14:16:58;4.68;;;3.15;;
25439;SDS011;13365;52.208;5.488;2023-07-28T14:19:24;6.30;;;3.53;;
25439;SDS011;13365;52.208;5.488;2023-07-28T14:21:49;6.25;;;3.50;;
25439;SDS011;13365;52.208;5.488;2023-07-28T14:24:15;10.95;;;3.35;;
25439;SDS011;13365;52.208;5.488;2023-07-28T14:26:40;6.38;;;3.50;;
25439;SDS011;13365;52.208;5.488;2023-07-28T14:29:05;5.55;;;3.28;;
25439;SDS011;13365;52.208;5.488;2023-07-28T14:31:31;8.45;;;3.58;;
25439;SDS011;13365;52.208;5.488;2023-07-28T14:33:57;6.63;;;3.17;;
25439;SDS011;13365;52.208;5.488;2023-07-28T14:36:22;11.02;;;3.50;;
25439;SDS011;13365;52.208;5.488;2023-07-28T14:38:48;9.80;;;3.70;;
25439;SDS011;13365;52.208;5.488;2023-07-28T14:41:14;17.70;;;3.83;;
25439;SDS011;13365;52.208;5.488;2023-07-28T14:43:39;15.70;;;3.90;;
25439;SDS011;13365;52.208;5.488;2023-07-28T14:46:05;4.90;;;3.10;;
25439;SDS011;13365;52.208;5.488;2023-07-28T14:48:30;7.40;;;4.05;;
25439;SDS011;13365;52.208;5.488;2023-07-28T14:50:56;7.07;;;3.50;;